Linxi, China
Current Conditions -  °F | °C
As of 1:00 PM on Wednesday 26 Nov 2014 (Local Time) from ZBAA Reporting Station
Haze Haze  
Wind Chill: 42°   Ceiling: Unl
Heat Index: 45°   Visibility: 1.2mi
Dew Point: 32°   Wind: 4mph
Humidity: 61%   Direction: 130°SE
Pressure: 29.97"   Gusts: NA
Location:  43.6°N, 118.07°E
Report Text: ZBAA 260500Z 13002MPS 040V190 2000 R01/1300NR36R/1200NR36L/1400N HZ NSC 07/M00 Q1015 NOSIG
Loading
Personal Weather Stations






























Interactive Weather Map New forecast layout! Learn more

10-Day Weather Forecast

Advertisements
Track Severe Weather on mobile